Vancouver Int'l Airport, British Columbia

Past 24 Hour Conditions

Date / Time
(PST)
Conditions Temp
(°C)
Humidity
(%)
Dew Point
(°C)
Wind
(km/h)
Pressure
(kPa)
Visibility
(km)
24 November 2014
13:00 Light Rain 8 85 5 ENE 16 102.3 13
12:00 Light Rain 8 86 6 E 23 102.4 16
11:00 Light Rain 8 86 6 E 18 102.5 24
10:00 Mostly Cloudy 8 87 6 ENE 12 102.6 24
9:00 Mostly Cloudy 7 91 6 E 13 102.6 24
8:00 Light Rain 7 92 6 ENE 13 102.6 24
7:00 Light Rain 7 89 5 E 11 102.7 19
6:00 Mostly Cloudy 7 88 5 ENE 18 102.7 24
5:00 Mostly Cloudy 6 90 5 E 19 102.7 24
4:00 Mostly Cloudy 5 93 4 ENE 12 102.8 24
3:00 Mostly Cloudy 6 93 5 ENE 12 102.8 24
2:00 Cloudy 5 94 4 ENE 11 102.7 24
1:00 Partly Cloudy 4   94 3 E 9 102.7 32
00:00 Mainly Clear 4   96 3 ENE 14 102.7 32
23 November 2014
23:00 Mainly Clear 5 95 4 NE 6 102.7 32
22:00 Partly Cloudy 5 93 4 E 7 102.5 32
21:00 Clear 6 90 5 SSW 14 102.4 32
20:00 Clear 5 93 4 S 10 102.4 32
19:00 Clear 7 91 5 SW 12 102.3 32
18:00 Mainly Clear 7 87 5 SW 22 gust 33 102.2 32
17:00 Mainly Clear 8 81 5 WSW 19 102.1 48
16:00 Mainly Sunny 8 85 5 WSW 16 102.1 48
15:00 Partly Cloudy 9 82 6 WSW 16 gust 33 102.0 48
14:00 Partly Cloudy 9 83 7 SW 13 101.9 48
13:00 Partly Cloudy 10   82 7 WSW 13 101.9 48
N/A Not available
↑ Highest temperature
↓ Lowest temperature

If you require additional historical weather information, please visit Climate Data Online.

Date modified: